MSC Clorinda — 3FDW7 — position and weather

sailwx.info

Track history (hours):
 
Tides and Currents Weather Stations Pressure Air Temp Water Temp Dewpoint Dewpoint Depression Visibility Wind Speed Wind Dir Waves Ship Positions

MSC Clorinda

Last reported at 2015-Apr-19 11:25 UTC. Time now 2015-Apr-19 19:11 UTC.
Position N 01°16' E 104°10'.

Length 366 m; draft 12.6 m.

Type: Ship (hazmat cat A). MMSI: 373233000.

Date/timePositionNaut miles runAvg speedWind from/ knotsBaromVisibWave heightAir tempDewpointWater temp
2015-Apr-19 11:25N 01°16' E 104°10'1518.2
2015-Apr-19 10:33N 01°13' E 103°55'9 8.7
2015-Apr-19 09:33N 01°14' E 103°47'3 2.0
2015-Apr-19 08:17N 01°16' E 103°46'0 0.0
2015-Apr-19 05:20N 01°16' E 103°46'0 0.0
2015-Apr-19 04:32N 01°16' E 103°46'0 0.0
2015-Apr-19 03:26N 01°16' E 103°46'0 0.0
2015-Apr-19 02:29N 01°16' E 103°46'0 0.0
2015-Apr-19 01:32N 01°16' E 103°46'0 0.0
2015-Apr-18 23:05N 01°16' E 103°46'0 0.0
2015-Apr-18 22:29N 01°16' E 103°46'0 0.0
2015-Apr-18 21:29N 01°16' E 103°46'0 0.0
2015-Apr-18 20:29N 01°16' E 103°46'0 0.0
2015-Apr-18 19:29N 01°16' E 103°46'0 0.0
2015-Apr-18 18:26N 01°16' E 103°46'0 0.0
2015-Apr-18 17:11N 01°16' E 103°46'0 0.0
2015-Apr-18 16:05N 01°16' E 103°46'0 0.0
2015-Apr-18 15:29N 01°16' E 103°46'0 0.0
2015-Apr-18 14:32N 01°16' E 103°46'0 0.0
2015-Apr-18 13:05N 01°16' E 103°46'0 0.0
2015-Apr-18 09:33N 01°16' E 103°46'0 0.0
2015-Apr-18 08:33N 01°16' E 103°46'0 0.0
2015-Apr-18 07:33N 01°16' E 103°46'4 4.3
2015-Apr-18 06:33N 01°14' E 103°42'3 2.9
2015-Apr-18 05:32N 01°12' E 103°40'0 0.0
2015-Apr-18 03:27N 01°12' E 103°40'1 1.1
2015-Apr-18 02:33N 01°12' E 103°39'66 9.5
2015-Apr-17 19:33N 01°42' E 102°40'1110.7
2015-Apr-17 18:33N 01°47' E 102°31'1110.6
2015-Apr-17 17:33N 01°51' E 102°21'1110.5
2015-Apr-17 16:33N 01°56' E 102°12'1210.7
2015-Apr-17 15:26N 02°04' E 102°02'40210.6
2015-Apr-16 01:28N 05°45' E 096°26'1112.3
2015-Apr-16 00:33N 05°48' E 096°15'1212.4
2015-Apr-15 23:33N 05°51' E 096°03'  
Track history (hours):
 
Tides and Currents Weather Stations Pressure Air Temp Water Temp Dewpoint Dewpoint Depression Visibility Wind Speed Wind Dir Waves Ship Positions

MSC Clorinda

Last reported at 2015-Apr-19 11:25 UTC. Time now 2015-Apr-19 19:11 UTC.
Position N 01°16' E 104°10'.

Length 366 m; draft 12.6 m.

Type: Ship (hazmat cat A). MMSI: 373233000.

Date/timePositionNaut miles runAvg speedWind from/ knotsBaromVisibWave heightAir tempDewpointWater temp
2015-Apr-19 11:25N 01°16' E 104°10'1518.2
2015-Apr-19 10:33N 01°13' E 103°55'9 8.7
2015-Apr-19 09:33N 01°14' E 103°47'3 2.0
2015-Apr-19 08:17N 01°16' E 103°46'0 0.0
2015-Apr-19 05:20N 01°16' E 103°46'0 0.0
2015-Apr-19 04:32N 01°16' E 103°46'0 0.0
2015-Apr-19 03:26N 01°16' E 103°46'0 0.0
2015-Apr-19 02:29N 01°16' E 103°46'0 0.0
2015-Apr-19 01:32N 01°16' E 103°46'0 0.0
2015-Apr-18 23:05N 01°16' E 103°46'0 0.0
2015-Apr-18 22:29N 01°16' E 103°46'0 0.0
2015-Apr-18 21:29N 01°16' E 103°46'0 0.0
2015-Apr-18 20:29N 01°16' E 103°46'0 0.0
2015-Apr-18 19:29N 01°16' E 103°46'0 0.0
2015-Apr-18 18:26N 01°16' E 103°46'0 0.0
2015-Apr-18 17:11N 01°16' E 103°46'0 0.0
2015-Apr-18 16:05N 01°16' E 103°46'0 0.0
2015-Apr-18 15:29N 01°16' E 103°46'0 0.0
2015-Apr-18 14:32N 01°16' E 103°46'0 0.0
2015-Apr-18 13:05N 01°16' E 103°46'0 0.0
2015-Apr-18 09:33N 01°16' E 103°46'0 0.0
2015-Apr-18 08:33N 01°16' E 103°46'0 0.0
2015-Apr-18 07:33N 01°16' E 103°46'4 4.3
2015-Apr-18 06:33N 01°14' E 103°42'3 2.9
2015-Apr-18 05:32N 01°12' E 103°40'0 0.0
2015-Apr-18 03:27N 01°12' E 103°40'1 1.1
2015-Apr-18 02:33N 01°12' E 103°39'66 9.5
2015-Apr-17 19:33N 01°42' E 102°40'1110.7
2015-Apr-17 18:33N 01°47' E 102°31'1110.6
2015-Apr-17 17:33N 01°51' E 102°21'1110.5
2015-Apr-17 16:33N 01°56' E 102°12'1210.7
2015-Apr-17 15:26N 02°04' E 102°02'40210.6
2015-Apr-16 01:28N 05°45' E 096°26'1112.3
2015-Apr-16 00:33N 05°48' E 096°15'1212.4
2015-Apr-15 23:33N 05°51' E 096°03'  

Dump ship's entire track history